createdAt,value
2022-10-17T00:01:43.676Z,100
2022-10-17T00:06:43.623Z,100
2022-10-17T00:11:43.598Z,100
2022-10-17T00:16:43.620Z,100
2022-10-17T00:21:43.594Z,100
2022-10-17T00:26:43.586Z,100
2022-10-17T00:31:43.612Z,100
2022-10-17T00:36:43.574Z,100
2022-10-17T00:41:43.602Z,100
2022-10-17T00:46:43.581Z,100
2022-10-17T00:51:43.565Z,100
2022-10-17T00:56:43.551Z,100
2022-10-17T01:01:43.589Z,100
2022-10-17T01:06:43.559Z,100
2022-10-17T01:11:43.546Z,100
2022-10-17T01:16:43.560Z,100
2022-10-17T01:21:43.531Z,100
2022-10-17T01:26:43.530Z,100
2022-10-17T01:31:43.534Z,100
2022-10-17T01:36:43.521Z,100
2022-10-17T01:41:43.514Z,100
2022-10-17T01:46:43.525Z,100
2022-10-17T01:51:43.522Z,100
2022-10-17T01:56:43.512Z,100
2022-10-17T02:01:43.537Z,100
2022-10-17T02:06:43.491Z,100
2022-10-17T02:11:43.492Z,100
2022-10-17T02:16:43.477Z,100
2022-10-17T02:21:43.459Z,100
2022-10-17T02:26:43.492Z,100
2022-10-17T02:31:43.474Z,100
2022-10-17T02:36:43.467Z,100
2022-10-17T02:41:43.460Z,100
2022-10-17T02:46:43.465Z,100
2022-10-17T02:56:43.463Z,100
2022-10-17T03:06:43.439Z,100
2022-10-17T03:11:43.446Z,100
2022-10-17T03:16:43.412Z,100
2022-10-17T03:31:43.413Z,100
2022-10-17T03:36:43.408Z,100
2022-10-17T03:41:43.409Z,100
2022-10-17T03:46:43.392Z,100
2022-10-17T03:51:43.393Z,100
2022-10-17T03:56:43.430Z,100
2022-10-17T04:06:43.358Z,100
2022-10-17T04:16:43.359Z,100
2022-10-17T04:21:43.373Z,100
2022-10-17T04:36:43.344Z,100
2022-10-17T04:41:43.341Z,100
2022-10-17T04:46:43.340Z,100
2022-10-17T04:51:43.333Z,100
2022-10-17T04:56:43.334Z,100
2022-10-17T05:01:43.344Z,100
2022-10-17T05:06:43.321Z,100
2022-10-17T05:11:43.337Z,100
2022-10-17T05:16:43.312Z,100
2022-10-17T05:21:43.304Z,100
2022-10-17T05:26:43.300Z,100
2022-10-17T05:31:43.294Z,100
2022-10-17T05:36:43.302Z,100
2022-10-17T05:41:43.287Z,100
2022-10-17T05:46:43.274Z,100
2022-10-17T05:51:43.287Z,100
2022-10-17T05:56:43.283Z,100
2022-10-17T06:01:43.310Z,100
2022-10-17T06:06:43.306Z,100
2022-10-17T06:11:43.274Z,100
2022-10-17T06:16:43.259Z,100
2022-10-17T06:21:43.260Z,100
2022-10-17T06:26:43.263Z,100
2022-10-17T06:31:43.249Z,100
2022-10-17T06:36:43.286Z,100
2022-10-17T06:41:43.233Z,100
2022-10-17T06:46:43.215Z,100
2022-10-17T06:51:43.228Z,100
2022-10-17T06:56:43.219Z,100
2022-10-17T07:01:44.613Z,100
2022-10-17T07:06:43.214Z,100
2022-10-17T07:11:43.214Z,100
2022-10-17T07:16:43.204Z,100
2022-10-17T07:21:43.190Z,100
2022-10-17T07:26:43.185Z,100
2022-10-17T07:31:43.174Z,100
2022-10-17T07:36:43.178Z,100
2022-10-17T07:41:43.164Z,100
2022-10-17T07:46:43.169Z,100
2022-10-17T07:51:43.195Z,100
2022-10-17T07:56:43.148Z,100
2022-10-17T08:01:43.144Z,99
2022-10-17T08:06:43.223Z,97.4
2022-10-17T08:11:43.136Z,95.9
2022-10-17T08:16:43.230Z,94.4
2022-10-17T08:21:43.113Z,93.4
2022-10-17T08:26:43.993Z,92.1
2022-10-17T08:31:46.431Z,91.2
2022-10-17T08:36:43.101Z,90.9
2022-10-17T08:41:43.119Z,90.6
2022-10-17T08:46:43.126Z,89.3
2022-10-17T08:51:43.092Z,87.8
2022-10-17T08:56:48.421Z,87.2
2022-10-17T09:01:43.071Z,86.4
2022-10-17T09:06:43.063Z,85.9
2022-10-17T09:11:43.074Z,85.2
2022-10-17T09:16:43.059Z,85
2022-10-17T09:21:43.062Z,84.2
2022-10-17T09:26:43.039Z,85.5
2022-10-17T09:31:43.074Z,83.1
2022-10-17T09:36:43.026Z,79.2
2022-10-17T09:46:43.062Z,77.6
2022-10-17T09:51:43.011Z,77.7
2022-10-17T09:56:43.017Z,77.5
2022-10-17T10:01:43.003Z,76.4
2022-10-17T10:06:43.000Z,77
2022-10-17T10:11:42.981Z,77
2022-10-17T10:16:42.994Z,75.9
2022-10-17T10:21:45.109Z,73.7
2022-10-17T10:26:42.962Z,74
2022-10-17T10:31:42.975Z,74.9
2022-10-17T10:36:42.988Z,75.5
2022-10-17T10:41:42.971Z,75.2
2022-10-17T10:46:42.944Z,75.3
2022-10-17T10:51:42.944Z,75.3
2022-10-17T10:56:42.934Z,74.2
2022-10-17T11:01:42.917Z,73.4
2022-10-17T11:06:42.915Z,73.5
2022-10-17T11:11:42.934Z,73.2
2022-10-17T11:16:42.906Z,72.8
2022-10-17T11:21:42.901Z,72.1
2022-10-17T11:26:42.914Z,72.4
2022-10-17T11:31:42.926Z,73
2022-10-17T11:36:42.871Z,70.7
2022-10-17T11:41:42.886Z,70.9
2022-10-17T11:46:42.863Z,69.6
2022-10-17T11:52:00.158Z,69.7
2022-10-17T11:56:43.078Z,70
2022-10-17T12:01:42.868Z,69.5
2022-10-17T12:06:42.832Z,70.2
2022-10-17T12:11:42.855Z,69.7
2022-10-17T12:21:43.508Z,75.4
2022-10-17T12:26:42.828Z,74
2022-10-17T12:31:42.813Z,71
2022-10-17T12:36:42.805Z,73
2022-10-17T12:41:42.804Z,68.5
2022-10-17T12:46:42.786Z,72.4
2022-10-17T12:51:42.782Z,73.1
2022-10-17T12:56:42.774Z,68.9
2022-10-17T13:01:42.846Z,72.1
2022-10-17T13:06:42.758Z,71
2022-10-17T13:11:42.763Z,72.1
2022-10-17T13:16:42.747Z,69.3
2022-10-17T13:21:42.740Z,71.6
2022-10-17T13:26:42.743Z,74
2022-10-17T13:31:42.733Z,72.4
2022-10-17T13:36:45.499Z,73.1
2022-10-17T13:41:42.741Z,71.8
2022-10-17T13:46:42.720Z,71.4
2022-10-17T13:56:42.734Z,71.6
2022-10-17T14:01:42.685Z,72
2022-10-17T14:16:42.683Z,72.3
2022-10-17T14:21:44.483Z,73.1
2022-10-17T14:31:42.649Z,74.6
2022-10-17T14:36:42.651Z,74.6
2022-10-17T14:41:43.682Z,75.1
2022-10-17T14:46:42.652Z,76.2
2022-10-17T14:51:50.140Z,76
2022-10-17T14:56:42.618Z,76.6
2022-10-17T15:01:42.631Z,77.3
2022-10-17T15:06:42.600Z,78.1
2022-10-17T15:11:42.622Z,77
2022-10-17T15:16:42.595Z,78.3
2022-10-17T15:21:46.224Z,78.3
2022-10-17T15:26:42.688Z,78.9
2022-10-17T15:31:42.579Z,78.9
2022-10-17T15:36:42.579Z,80.7
2022-10-17T15:41:42.571Z,82.5
2022-10-17T15:46:42.556Z,83.9
2022-10-17T15:51:42.567Z,85.4
2022-10-17T15:56:42.551Z,87
2022-10-17T16:01:42.552Z,88.3
2022-10-17T16:06:42.548Z,89.4
2022-10-17T16:11:42.538Z,90.5
2022-10-17T16:16:42.521Z,91.7
2022-10-17T16:21:42.516Z,93
2022-10-17T16:26:42.518Z,93.7
2022-10-17T16:31:42.501Z,95.3
2022-10-17T16:36:42.499Z,95.9
2022-10-17T16:46:42.519Z,97.3
2022-10-17T16:51:42.537Z,98.1
2022-10-17T16:56:42.471Z,98.4
2022-10-17T17:01:42.481Z,98.8
2022-10-17T17:06:42.528Z,99
2022-10-17T17:11:42.466Z,99.5
2022-10-17T17:16:42.455Z,99.8
2022-10-17T17:21:42.436Z,100
2022-10-17T17:26:42.452Z,100
2022-10-17T17:31:42.444Z,100
2022-10-17T17:36:42.428Z,100
2022-10-17T17:41:42.412Z,100
2022-10-17T17:46:42.420Z,100
2022-10-17T17:51:42.412Z,100
2022-10-17T17:56:42.403Z,100
2022-10-17T18:01:42.428Z,100
2022-10-17T18:06:42.404Z,100
2022-10-17T18:11:42.396Z,100
2022-10-17T18:16:42.387Z,100
2022-10-17T18:21:42.371Z,100
2022-10-17T18:31:42.371Z,100
2022-10-17T18:36:42.373Z,100
2022-10-17T18:41:42.358Z,100
2022-10-17T18:46:42.361Z,100
2022-10-17T18:51:42.347Z,100
2022-10-17T19:06:42.333Z,100
2022-10-17T19:11:42.328Z,100
2022-10-17T19:16:42.313Z,100
2022-10-17T19:21:42.320Z,100
2022-10-17T19:26:42.297Z,100
2022-10-17T19:31:42.341Z,100
2022-10-17T19:36:42.303Z,100
2022-10-17T19:41:42.320Z,100
2022-10-17T19:46:42.312Z,100
2022-10-17T19:51:42.293Z,100
2022-10-17T19:56:42.278Z,100
2022-10-17T20:01:42.289Z,100
2022-10-17T20:06:42.270Z,100
2022-10-17T20:11:42.261Z,100
2022-10-17T20:16:42.263Z,100
2022-10-17T20:21:42.267Z,100
2022-10-17T20:26:42.247Z,100
2022-10-17T20:31:42.245Z,100
2022-10-17T20:36:42.248Z,100
2022-10-17T20:41:42.221Z,100
2022-10-17T20:46:48.569Z,100
2022-10-17T20:51:42.231Z,100
2022-10-17T20:56:42.194Z,100
2022-10-17T21:01:42.277Z,100
2022-10-17T21:06:42.201Z,100
2022-10-17T21:11:42.205Z,100
2022-10-17T21:16:42.205Z,100
2022-10-17T21:21:42.185Z,100
2022-10-17T21:26:42.174Z,100
2022-10-17T21:31:42.178Z,100
2022-10-17T21:36:42.181Z,100
2022-10-17T21:41:42.150Z,100
2022-10-17T21:46:42.160Z,100
2022-10-17T21:51:42.149Z,100
2022-10-17T21:56:42.152Z,100
2022-10-17T22:16:42.138Z,100
2022-10-17T22:21:42.136Z,100
2022-10-17T22:26:42.121Z,100
2022-10-17T22:31:42.123Z,100
2022-10-17T22:36:42.119Z,100
2022-10-17T22:41:42.102Z,100
2022-10-17T22:46:42.085Z,100
2022-10-17T22:51:42.101Z,100
2022-10-17T22:56:42.091Z,100
2022-10-17T23:01:42.109Z,100
2022-10-17T23:06:42.097Z,100
2022-10-17T23:11:42.083Z,100
2022-10-17T23:16:42.075Z,100
2022-10-17T23:21:42.060Z,100
2022-10-17T23:26:42.047Z,100
2022-10-17T23:31:42.051Z,100
2022-10-17T23:36:42.057Z,100
2022-10-17T23:41:42.024Z,100
2022-10-17T23:46:42.028Z,100
2022-10-17T23:51:42.048Z,100
2022-10-17T23:56:42.023Z,100
